createdAt,value
2022-10-17T00:08:31.916Z,100
2022-10-17T00:18:33.719Z,100
2022-10-17T00:28:36.321Z,100
2022-10-17T00:38:38.723Z,100
2022-10-17T00:48:40.914Z,100
2022-10-17T00:58:43.149Z,100
2022-10-17T01:08:45.085Z,100
2022-10-17T01:18:46.840Z,100
2022-10-17T01:28:49.333Z,100
2022-10-17T01:38:51.361Z,100
2022-10-17T01:48:53.987Z,100
2022-10-17T01:58:56.606Z,100
2022-10-17T02:08:58.727Z,100
2022-10-17T02:19:00.908Z,100
2022-10-17T02:29:03.372Z,100
2022-10-17T02:39:04.987Z,100
2022-10-17T02:49:07.472Z,100
2022-10-17T03:09:12.638Z,100
2022-10-17T03:19:14.439Z,100
2022-10-17T03:29:16.158Z,100
2022-10-17T03:39:17.992Z,100
2022-10-17T03:42:12.521Z,100
2022-10-17T03:49:29.799Z,100
2022-10-17T03:59:32.302Z,100
2022-10-17T04:09:34.347Z,100
2022-10-17T04:19:36.168Z,100
2022-10-17T04:29:38.114Z,100
2022-10-17T04:39:40.339Z,100
2022-10-17T04:59:44.099Z,100
2022-10-17T05:09:46.516Z,100
2022-10-17T05:39:53.118Z,100
2022-10-17T05:49:54.927Z,100
2022-10-17T06:30:03.207Z,100
2022-10-17T06:40:05.676Z,100
2022-10-17T06:50:08.113Z,100
2022-10-17T07:00:10.197Z,100
2022-10-17T07:10:12.844Z,100
2022-10-17T07:20:15.458Z,100
2022-10-17T07:30:17.921Z,100
2022-10-17T07:40:20.012Z,100
2022-10-17T07:50:22.110Z,100
2022-10-17T08:00:24.095Z,98
2022-10-17T08:10:26.258Z,95
2022-10-17T08:20:28.735Z,94
2022-10-17T08:30:30.834Z,91
2022-10-17T08:50:35.590Z,86
2022-10-17T09:00:37.937Z,83
2022-10-17T09:10:40.103Z,81
2022-10-17T09:20:42.395Z,80
2022-10-17T09:30:45.775Z,79
2022-10-17T09:40:46.139Z,76
2022-10-17T09:50:53.890Z,76
2022-10-17T10:00:51.048Z,77
2022-10-17T10:10:53.396Z,78
2022-10-17T10:20:55.743Z,79
2022-10-17T11:01:04.276Z,79
2022-10-17T11:11:06.418Z,78
2022-10-17T11:21:08.487Z,78
2022-10-17T11:41:12.527Z,78
2022-10-17T12:01:16.619Z,83
2022-10-17T12:21:22.409Z,81
2022-10-17T12:41:26.059Z,82
2022-10-17T13:11:32.669Z,86
2022-10-17T13:31:36.137Z,90
2022-10-17T13:41:38.754Z,92
2022-10-17T14:01:42.726Z,97
2022-10-17T14:31:49.786Z,97
2022-10-17T14:51:56.866Z,95
2022-10-17T15:01:56.625Z,95
2022-10-17T15:11:59.109Z,95
2022-10-17T15:22:01.222Z,93
2022-10-17T15:42:05.025Z,96
2022-10-17T15:52:07.333Z,98
2022-10-17T16:02:09.208Z,98
2022-10-17T16:12:11.694Z,100
2022-10-17T16:22:13.331Z,100
2022-10-17T16:32:15.583Z,100
2022-10-17T16:42:18.103Z,100
2022-10-17T16:52:20.052Z,100
2022-10-17T17:02:21.871Z,100
2022-10-17T17:12:23.710Z,100
2022-10-17T17:22:26.024Z,100
2022-10-17T17:32:28.566Z,100
2022-10-17T17:52:33.001Z,100
2022-10-17T18:02:34.960Z,100
2022-10-17T18:12:37.308Z,100
2022-10-17T18:22:39.075Z,100
2022-10-17T18:32:41.493Z,100
2022-10-17T18:42:43.612Z,100
2022-10-17T18:52:45.347Z,100
2022-10-17T19:02:47.351Z,100
2022-10-17T19:12:49.091Z,100
2022-10-17T19:22:54.546Z,100
2022-10-17T19:32:53.924Z,100
2022-10-17T19:42:55.669Z,100
2022-10-17T20:03:00.040Z,100
2022-10-17T20:13:01.913Z,100
2022-10-17T20:23:03.903Z,100
2022-10-17T20:33:06.061Z,100
2022-10-17T20:43:08.405Z,100
2022-10-17T20:53:35.248Z,100
2022-10-17T21:03:12.689Z,100
2022-10-17T21:13:15.144Z,100
2022-10-17T21:23:16.967Z,100
2022-10-17T21:33:18.670Z,100
2022-10-17T21:43:21.219Z,100
2022-10-17T21:53:23.494Z,100
2022-10-17T22:03:26.149Z,100
2022-10-17T22:13:28.632Z,100
2022-10-17T22:23:30.579Z,100
2022-10-17T22:33:32.831Z,100
2022-10-17T22:43:34.662Z,100
2022-10-17T22:53:36.545Z,100
2022-10-17T23:03:38.389Z,100
2022-10-17T23:13:40.223Z,100
2022-10-17T23:23:42.614Z,100
2022-10-17T23:33:44.558Z,100
2022-10-17T23:43:46.906Z,100
2022-10-17T23:53:49.013Z,100
